sensor_id;sensor_type;location;lat;lon;timestamp;pressure;altitude;pressure_sealevel;temperature;humidity
68628;BME280;55611;48.602;9.490;2022-08-21T00:01:40;97010;;;21.3;61
68628;BME280;55611;48.602;9.490;2022-08-21T00:04:11;97010;;;21.3;61
68628;BME280;55611;48.602;9.490;2022-08-21T00:06:41;97000;;;21.3;61
68628;BME280;55611;48.602;9.490;2022-08-21T00:09:11;97010;;;21.3;61
68628;BME280;55611;48.602;9.490;2022-08-21T00:11:43;97010;;;21.3;61
68628;BME280;55611;48.602;9.490;2022-08-21T00:14:13;97000;;;21.3;61
68628;BME280;55611;48.602;9.490;2022-08-21T00:16:43;97010;;;21.2;61
68628;BME280;55611;48.602;9.490;2022-08-21T00:19:14;97010;;;21.2;61
68628;BME280;55611;48.602;9.490;2022-08-21T00:21:44;97010;;;21.2;61
68628;BME280;55611;48.602;9.490;2022-08-21T00:24:15;97000;;;21.2;61
68628;BME280;55611;48.602;9.490;2022-08-21T00:26:45;97010;;;21.2;61
68628;BME280;55611;48.602;9.490;2022-08-21T00:29:16;97000;;;21.2;61
68628;BME280;55611;48.602;9.490;2022-08-21T00:31:46;97000;;;21.2;61
68628;BME280;55611;48.602;9.490;2022-08-21T00:34:17;97000;;;21.2;61
68628;BME280;55611;48.602;9.490;2022-08-21T00:36:47;97000;;;21.2;61
68628;BME280;55611;48.602;9.490;2022-08-21T00:39:18;97000;;;21.2;61
68628;BME280;55611;48.602;9.490;2022-08-21T00:41:48;97000;;;21.3;61
68628;BME280;55611;48.602;9.490;2022-08-21T00:44:19;97000;;;21.1;61
68628;BME280;55611;48.602;9.490;2022-08-21T00:49:20;97000;;;20.6;61
68628;BME280;55611;48.602;9.490;2022-08-21T00:51:53;97000;;;20.5;61
68628;BME280;55611;48.602;9.490;2022-08-21T00:54:22;96990;;;20.4;61
68628;BME280;55611;48.602;9.490;2022-08-21T00:56:53;97000;;;20.3;61
68628;BME280;55611;48.602;9.490;2022-08-21T00:59:22;96990;;;20.1;61
68628;BME280;55611;48.602;9.490;2022-08-21T01:01:52;97000;;;19.9;61
68628;BME280;55611;48.602;9.490;2022-08-21T01:04:23;97000;;;19.8;61
68628;BME280;55611;48.602;9.490;2022-08-21T01:06:53;96990;;;19.7;61
68628;BME280;55611;48.602;9.490;2022-08-21T01:09:24;97000;;;19.6;61
68628;BME280;55611;48.602;9.490;2022-08-21T01:11:54;97000;;;19.5;61
68628;BME280;55611;48.602;9.490;2022-08-21T01:14:25;97000;;;19.4;61
68628;BME280;55611;48.602;9.490;2022-08-21T01:16:56;96990;;;19.4;61
68628;BME280;55611;48.602;9.490;2022-08-21T01:19:26;96990;;;19.4;61
68628;BME280;55611;48.602;9.490;2022-08-21T01:21:56;96990;;;19.5;61
68628;BME280;55611;48.602;9.490;2022-08-21T01:24:27;96990;;;19.4;61
68628;BME280;55611;48.602;9.490;2022-08-21T01:26:58;96990;;;19.3;61
68628;BME280;55611;48.602;9.490;2022-08-21T01:29:30;96990;;;19.3;61.5
68628;BME280;55611;48.602;9.490;2022-08-21T01:31:59;96990;;;19.3;61
68628;BME280;55611;48.602;9.490;2022-08-21T01:34:29;96990;;;19.3;61
68628;BME280;55611;48.602;9.490;2022-08-21T01:37:00;96990;;;19.2;61
68628;BME280;55611;48.602;9.490;2022-08-21T01:39:30;96980;;;19.1;61
68628;BME280;55611;48.602;9.490;2022-08-21T01:42:01;96990;;;19.1;61
68628;BME280;55611;48.602;9.490;2022-08-21T01:44:31;96990;;;19;61
68628;BME280;55611;48.602;9.490;2022-08-21T01:47:03;96990;;;19;61
68628;BME280;55611;48.602;9.490;2022-08-21T01:49:32;96990;;;18.9;61
68628;BME280;55611;48.602;9.490;2022-08-21T01:52:03;96980;;;18.9;61
68628;BME280;55611;48.602;9.490;2022-08-21T01:54:33;96980;;;18.9;61
68628;BME280;55611;48.602;9.490;2022-08-21T01:57:04;96980;;;18.9;61
68628;BME280;55611;48.602;9.490;2022-08-21T01:59:34;96980;;;19;61
68628;BME280;55611;48.602;9.490;2022-08-21T02:02:05;96980;;;18.9;61.5
68628;BME280;55611;48.602;9.490;2022-08-21T02:04:35;96980;;;18.9;61.5
68628;BME280;55611;48.602;9.490;2022-08-21T02:07:06;96980;;;18.9;61.5
68628;BME280;55611;48.602;9.490;2022-08-21T02:09:36;96980;;;18.8;61
68628;BME280;55611;48.602;9.490;2022-08-21T02:12:07;96970;;;18.7;61
68628;BME280;55611;48.602;9.490;2022-08-21T02:14:37;96970;;;18.6;61
68628;BME280;55611;48.602;9.490;2022-08-21T02:17:08;96970;;;18.5;61
68628;BME280;55611;48.602;9.490;2022-08-21T02:19:38;96980;;;18.5;61
68628;BME280;55611;48.602;9.490;2022-08-21T02:22:09;96970;;;18.4;61
68628;BME280;55611;48.602;9.490;2022-08-21T02:24:39;96970;;;18.4;61
68628;BME280;55611;48.602;9.490;2022-08-21T02:27:10;96970;;;18.4;61
68628;BME280;55611;48.602;9.490;2022-08-21T02:29:40;96970;;;18.4;61
68628;BME280;55611;48.602;9.490;2022-08-21T02:32:11;96960;;;18.4;61
68628;BME280;55611;48.602;9.490;2022-08-21T02:34:41;96960;;;18.3;61
68628;BME280;55611;48.602;9.490;2022-08-21T02:37:12;96970;;;18.3;61
68628;BME280;55611;48.602;9.490;2022-08-21T02:39:42;96970;;;18.3;61
68628;BME280;55611;48.602;9.490;2022-08-21T02:42:13;96970;;;18.3;61
68628;BME280;55611;48.602;9.490;2022-08-21T02:44:43;96970;;;18.2;61
68628;BME280;55611;48.602;9.490;2022-08-21T02:47:14;96970;;;18.2;61
68628;BME280;55611;48.602;9.490;2022-08-21T02:49:44;96970;;;18.1;61.5
68628;BME280;55611;48.602;9.490;2022-08-21T02:52:15;96970;;;18.1;61
68628;BME280;55611;48.602;9.490;2022-08-21T02:54:46;96970;;;18.1;61
68628;BME280;55611;48.602;9.490;2022-08-21T02:57:16;96970;;;18.1;61
68628;BME280;55611;48.602;9.490;2022-08-21T02:59:47;96970;;;18.1;61
68628;BME280;55611;48.602;9.490;2022-08-21T03:02:17;96970;;;18;61
68628;BME280;55611;48.602;9.490;2022-08-21T03:04:48;96970;;;18;61
68628;BME280;55611;48.602;9.490;2022-08-21T03:07:18;96970;;;17.9;61
68628;BME280;55611;48.602;9.490;2022-08-21T03:09:49;96970;;;17.9;61
68628;BME280;55611;48.602;9.490;2022-08-21T03:12:19;96970;;;17.9;61
68628;BME280;55611;48.602;9.490;2022-08-21T03:14:50;96970;;;17.8;61
68628;BME280;55611;48.602;9.490;2022-08-21T03:17:20;96970;;;17.8;61
68628;BME280;55611;48.602;9.490;2022-08-21T03:19:51;96970;;;17.8;61
68628;BME280;55611;48.602;9.490;2022-08-21T03:22:21;96970;;;17.8;61
68628;BME280;55611;48.602;9.490;2022-08-21T03:24:52;96970;;;17.8;61
68628;BME280;55611;48.602;9.490;2022-08-21T03:27:22;96970;;;17.7;61
68628;BME280;55611;48.602;9.490;2022-08-21T03:29:53;96970;;;17.7;61
68628;BME280;55611;48.602;9.490;2022-08-21T03:32:23;96970;;;17.7;61
68628;BME280;55611;48.602;9.490;2022-08-21T03:34:54;96970;;;17.7;61
68628;BME280;55611;48.602;9.490;2022-08-21T03:37:24;96970;;;17.7;61
68628;BME280;55611;48.602;9.490;2022-08-21T03:39:55;96970;;;17.7;61
68628;BME280;55611;48.602;9.490;2022-08-21T03:42:25;96970;;;17.6;61
68628;BME280;55611;48.602;9.490;2022-08-21T03:44:56;96970;;;17.5;61
68628;BME280;55611;48.602;9.490;2022-08-21T03:47:26;96970;;;17.4;61
68628;BME280;55611;48.602;9.490;2022-08-21T03:49:57;96970;;;17.3;61
68628;BME280;55611;48.602;9.490;2022-08-21T03:52:27;96970;;;17.3;61
68628;BME280;55611;48.602;9.490;2022-08-21T03:54:58;96980;;;17.3;61
68628;BME280;55611;48.602;9.490;2022-08-21T03:57:28;96970;;;17.2;61
68628;BME280;55611;48.602;9.490;2022-08-21T03:59:59;96970;;;17.2;61
68628;BME280;55611;48.602;9.490;2022-08-21T04:02:29;96980;;;17.1;61
68628;BME280;55611;48.602;9.490;2022-08-21T04:05:00;96970;;;17.1;61
68628;BME280;55611;48.602;9.490;2022-08-21T04:07:30;96980;;;17.1;61
68628;BME280;55611;48.602;9.490;2022-08-21T04:10:02;96970;;;17;61
68628;BME280;55611;48.602;9.490;2022-08-21T04:12:32;96970;;;17;61
68628;BME280;55611;48.602;9.490;2022-08-21T04:15:02;96970;;;17;61
68628;BME280;55611;48.602;9.490;2022-08-21T04:17:33;96980;;;17;61
68628;BME280;55611;48.602;9.490;2022-08-21T04:20:03;96980;;;17;61
68628;BME280;55611;48.602;9.490;2022-08-21T04:22:34;96980;;;17;61
68628;BME280;55611;48.602;9.490;2022-08-21T04:25:04;96990;;;17;61
68628;BME280;55611;48.602;9.490;2022-08-21T04:27:35;96980;;;17.1;61
68628;BME280;55611;48.602;9.490;2022-08-21T04:30:05;96990;;;17.1;61
68628;BME280;55611;48.602;9.490;2022-08-21T04:32:36;96990;;;17.2;61
68628;BME280;55611;48.602;9.490;2022-08-21T04:35:11;96990;;;17.2;61
68628;BME280;55611;48.602;9.490;2022-08-21T04:37:37;96990;;;17.2;61
68628;BME280;55611;48.602;9.490;2022-08-21T04:40:08;97000;;;17.2;61
68628;BME280;55611;48.602;9.490;2022-08-21T04:42:47;97010;;;17.2;61
68628;BME280;55611;48.602;9.490;2022-08-21T04:45:08;97010;;;17.2;61.5
68628;BME280;55611;48.602;9.490;2022-08-21T04:47:39;97010;;;17.3;61.5
68628;BME280;55611;48.602;9.490;2022-08-21T04:50:09;97020;;;17.3;61.5
68628;BME280;55611;48.602;9.490;2022-08-21T04:52:40;97010;;;17.3;61.5
68628;BME280;55611;48.602;9.490;2022-08-21T04:55:10;97010;;;17.3;61.5
68628;BME280;55611;48.602;9.490;2022-08-21T04:57:41;97020;;;17.4;61.5
68628;BME280;55611;48.602;9.490;2022-08-21T05:00:12;97020;;;17.4;61.5
68628;BME280;55611;48.602;9.490;2022-08-21T05:02:42;97030;;;17.5;61.5
68628;BME280;55611;48.602;9.490;2022-08-21T05:05:12;97030;;;17.6;61
68628;BME280;55611;48.602;9.490;2022-08-21T05:07:43;97030;;;17.7;61.5
68628;BME280;55611;48.602;9.490;2022-08-21T05:10:13;97030;;;17.8;61.5
68628;BME280;55611;48.602;9.490;2022-08-21T05:12:44;97030;;;17.9;61.5
68628;BME280;55611;48.602;9.490;2022-08-21T05:15:14;97030;;;18;61.5
68628;BME280;55611;48.602;9.490;2022-08-21T05:17:45;97030;;;18.2;61.5
68628;BME280;55611;48.602;9.490;2022-08-21T05:20:16;97030;;;18.3;61.5
68628;BME280;55611;48.602;9.490;2022-08-21T05:22:46;97030;;;18.4;61.5
68628;BME280;55611;48.602;9.490;2022-08-21T05:25:16;97040;;;18.4;61.5
68628;BME280;55611;48.602;9.490;2022-08-21T05:27:47;97030;;;18.5;61.5
68628;BME280;55611;48.602;9.490;2022-08-21T05:30:18;97030;;;18.5;61.5
68628;BME280;55611;48.602;9.490;2022-08-21T05:32:48;97030;;;18.6;61.5
68628;BME280;55611;48.602;9.490;2022-08-21T05:35:18;97040;;;18.7;61.5
68628;BME280;55611;48.602;9.490;2022-08-21T05:37:49;97030;;;18.8;61.5
68628;BME280;55611;48.602;9.490;2022-08-21T05:40:20;97030;;;18.8;61.5
68628;BME280;55611;48.602;9.490;2022-08-21T05:42:50;97040;;;18.9;61.5
68628;BME280;55611;48.602;9.490;2022-08-21T05:45:22;97040;;;18.9;61.5
68628;BME280;55611;48.602;9.490;2022-08-21T05:47:51;97030;;;18.9;61.5
68628;BME280;55611;48.602;9.490;2022-08-21T05:50:22;97040;;;18.9;61.5
68628;BME280;55611;48.602;9.490;2022-08-21T05:52:52;97040;;;18.8;61.5
68628;BME280;55611;48.602;9.490;2022-08-21T05:55:23;97050;;;18.6;61.5
68628;BME280;55611;48.602;9.490;2022-08-21T05:57:53;97040;;;18.5;61.5
68628;BME280;55611;48.602;9.490;2022-08-21T06:00:24;97040;;;18.4;61.5
68628;BME280;55611;48.602;9.490;2022-08-21T06:02:54;97040;;;18.5;61.5
68628;BME280;55611;48.602;9.490;2022-08-21T06:05:25;97040;;;18.5;61.5
68628;BME280;55611;48.602;9.490;2022-08-21T06:07:55;97040;;;18.5;61.5
68628;BME280;55611;48.602;9.490;2022-08-21T06:10:26;97040;;;18.6;61.5
68628;BME280;55611;48.602;9.490;2022-08-21T06:12:56;97040;;;18.6;61.5
68628;BME280;55611;48.602;9.490;2022-08-21T06:15:27;97040;;;18.6;61.5
68628;BME280;55611;48.602;9.490;2022-08-21T06:17:57;97040;;;18.6;62
68628;BME280;55611;48.602;9.490;2022-08-21T06:20:28;97040;;;18.6;62
68628;BME280;55611;48.602;9.490;2022-08-21T06:22:58;97040;;;18.7;61.5
68628;BME280;55611;48.602;9.490;2022-08-21T06:25:29;97040;;;18.8;61.5
68628;BME280;55611;48.602;9.490;2022-08-21T06:28:00;97040;;;18.9;61.5
68628;BME280;55611;48.602;9.490;2022-08-21T06:30:30;97040;;;19;61.5
68628;BME280;55611;48.602;9.490;2022-08-21T06:33:00;97040;;;19.1;61.5
68628;BME280;55611;48.602;9.490;2022-08-21T06:35:31;97040;;;19.2;61.5
68628;BME280;55611;48.602;9.490;2022-08-21T06:38:01;97050;;;19.3;61.5
68628;BME280;55611;48.602;9.490;2022-08-21T06:40:32;97050;;;19.3;61.5
68628;BME280;55611;48.602;9.490;2022-08-21T06:43:07;97040;;;19.4;61.5
68628;BME280;55611;48.602;9.490;2022-08-21T06:45:33;97040;;;19.4;61.5
68628;BME280;55611;48.602;9.490;2022-08-21T06:48:04;97040;;;19.5;61.5
68628;BME280;55611;48.602;9.490;2022-08-21T06:50:34;97040;;;19.6;61.5
68628;BME280;55611;48.602;9.490;2022-08-21T06:53:06;97040;;;19.7;61.5
68628;BME280;55611;48.602;9.490;2022-08-21T06:55:36;97040;;;19.8;61.5
68628;BME280;55611;48.602;9.490;2022-08-21T06:58:06;97040;;;19.9;61.5
68628;BME280;55611;48.602;9.490;2022-08-21T07:00:40;97040;;;20;61.5
68628;BME280;55611;48.602;9.490;2022-08-21T07:03:07;97040;;;20.2;61.5
68628;BME280;55611;48.602;9.490;2022-08-21T07:05:37;97030;;;20.2;61.5
68628;BME280;55611;48.602;9.490;2022-08-21T07:08:08;97030;;;20.4;61.5
68628;BME280;55611;48.602;9.490;2022-08-21T07:10:38;97030;;;20.5;61.5
68628;BME280;55611;48.602;9.490;2022-08-21T07:13:09;97030;;;20.6;61.5
68628;BME280;55611;48.602;9.490;2022-08-21T07:15:39;97030;;;20.7;61.5
68628;BME280;55611;48.602;9.490;2022-08-21T07:18:10;97030;;;20.7;61.5
68628;BME280;55611;48.602;9.490;2022-08-21T07:20:41;97030;;;20.8;61.5
68628;BME280;55611;48.602;9.490;2022-08-21T07:23:12;97030;;;20.8;61.5
68628;BME280;55611;48.602;9.490;2022-08-21T07:25:41;97040;;;20.9;61.5
68628;BME280;55611;48.602;9.490;2022-08-21T07:28:12;97030;;;21;61.5
68628;BME280;55611;48.602;9.490;2022-08-21T07:30:42;97030;;;21.1;61.5
68628;BME280;55611;48.602;9.490;2022-08-21T07:33:13;97030;;;21.2;61.5
68628;BME280;55611;48.602;9.490;2022-08-21T07:35:43;97030;;;21.2;61.5
68628;BME280;55611;48.602;9.490;2022-08-21T07:38:14;97020;;;21.3;61.5
68628;BME280;55611;48.602;9.490;2022-08-21T07:40:45;97020;;;21.4;61.5
68628;BME280;55611;48.602;9.490;2022-08-21T07:43:15;97020;;;21.6;61.5
68628;BME280;55611;48.602;9.490;2022-08-21T07:45:45;97020;;;21.7;61.5
68628;BME280;55611;48.602;9.490;2022-08-21T07:48:16;97020;;;21.7;61.5
68628;BME280;55611;48.602;9.490;2022-08-21T07:50:46;97020;;;21.8;61.5
68628;BME280;55611;48.602;9.490;2022-08-21T07:53:17;97020;;;21.9;61.5
68628;BME280;55611;48.602;9.490;2022-08-21T07:55:47;97020;;;21.9;62
68628;BME280;55611;48.602;9.490;2022-08-21T07:58:18;97020;;;22;61.5
68628;BME280;55611;48.602;9.490;2022-08-21T08:00:49;97020;;;22;61.5
68628;BME280;55611;48.602;9.490;2022-08-21T08:03:19;97020;;;22.1;61.5
68628;BME280;55611;48.602;9.490;2022-08-21T08:05:49;97020;;;22.2;61.5
68628;BME280;55611;48.602;9.490;2022-08-21T08:08:20;97020;;;22.3;61.5
68628;BME280;55611;48.602;9.490;2022-08-21T08:10:51;97010;;;22.4;61.5
68628;BME280;55611;48.602;9.490;2022-08-21T08:13:21;97010;;;22.5;61.5
68628;BME280;55611;48.602;9.490;2022-08-21T08:15:52;97010;;;22.6;61.5
68628;BME280;55611;48.602;9.490;2022-08-21T08:18:22;97010;;;22.6;61.5
68628;BME280;55611;48.602;9.490;2022-08-21T08:20:53;97010;;;22.6;61.5
68628;BME280;55611;48.602;9.490;2022-08-21T08:23:23;97010;;;22.5;61.5
68628;BME280;55611;48.602;9.490;2022-08-21T08:25:54;97000;;;22.6;61.5
68628;BME280;55611;48.602;9.490;2022-08-21T08:28:24;97000;;;22.7;61.5
68628;BME280;55611;48.602;9.490;2022-08-21T08:30:55;97000;;;22.8;61.5
68628;BME280;55611;48.602;9.490;2022-08-21T08:33:25;97000;;;22.8;61.5
68628;BME280;55611;48.602;9.490;2022-08-21T08:35:56;96990;;;22.9;61.5
68628;BME280;55611;48.602;9.490;2022-08-21T08:38:26;96990;;;23;61.5
68628;BME280;55611;48.602;9.490;2022-08-21T08:41:02;96990;;;23.1;61.5
68628;BME280;55611;48.602;9.490;2022-08-21T08:43:28;96990;;;23.3;61.5
68628;BME280;55611;48.602;9.490;2022-08-21T08:45:58;96980;;;23.3;61.5
68628;BME280;55611;48.602;9.490;2022-08-21T08:48:31;96980;;;23.4;61.5
68628;BME280;55611;48.602;9.490;2022-08-21T08:50:59;96980;;;23.4;61.5
68628;BME280;55611;48.602;9.490;2022-08-21T08:53:34;96980;;;23.5;61.5
68628;BME280;55611;48.602;9.490;2022-08-21T08:56:00;96980;;;23.5;61.5
68628;BME280;55611;48.602;9.490;2022-08-21T08:58:31;96980;;;23.5;61.5
68628;BME280;55611;48.602;9.490;2022-08-21T09:01:01;96980;;;23.5;61.5
68628;BME280;55611;48.602;9.490;2022-08-21T09:03:31;96970;;;23.6;61.5
68628;BME280;55611;48.602;9.490;2022-08-21T09:06:04;96970;;;23.6;61.5
68628;BME280;55611;48.602;9.490;2022-08-21T09:08:37;96980;;;23.7;61.5
68628;BME280;55611;48.602;9.490;2022-08-21T09:11:04;96980;;;23.7;61.5
68628;BME280;55611;48.602;9.490;2022-08-21T09:16:11;96980;;;23.8;61.5
68628;BME280;55611;48.602;9.490;2022-08-21T09:18:41;96980;;;23.8;61.5
68628;BME280;55611;48.602;9.490;2022-08-21T09:21:16;96970;;;23.9;61.5
68628;BME280;55611;48.602;9.490;2022-08-21T09:23:40;96970;;;24;61.5
68628;BME280;55611;48.602;9.490;2022-08-21T09:26:12;96970;;;24;61.5
68628;BME280;55611;48.602;9.490;2022-08-21T09:28:37;96970;;;24.1;61.5
68628;BME280;55611;48.602;9.490;2022-08-21T09:31:08;96960;;;24.2;61
68628;BME280;55611;48.602;9.490;2022-08-21T09:33:37;96960;;;24.1;61.5
68628;BME280;55611;48.602;9.490;2022-08-21T09:36:08;96960;;;24.2;61.5
68628;BME280;55611;48.602;9.490;2022-08-21T09:38:39;96960;;;24.1;61.5
68628;BME280;55611;48.602;9.490;2022-08-21T09:41:09;96960;;;24.2;61.5
68628;BME280;55611;48.602;9.490;2022-08-21T09:43:40;96960;;;24.3;61
68628;BME280;55611;48.602;9.490;2022-08-21T09:46:19;96960;;;24.3;61.5
68628;BME280;55611;48.602;9.490;2022-08-21T09:48:42;96960;;;24.4;61.5
68628;BME280;55611;48.602;9.490;2022-08-21T09:51:13;96960;;;24.4;61.5
68628;BME280;55611;48.602;9.490;2022-08-21T09:53:46;96950;;;24.4;61.5
68628;BME280;55611;48.602;9.490;2022-08-21T09:56:17;96950;;;24.4;61.5
68628;BME280;55611;48.602;9.490;2022-08-21T09:58:44;96960;;;24.5;61.5
68628;BME280;55611;48.602;9.490;2022-08-21T10:01:14;96950;;;24.4;61.5
68628;BME280;55611;48.602;9.490;2022-08-21T10:03:44;96960;;;24.4;61
68628;BME280;55611;48.602;9.490;2022-08-21T10:06:23;96950;;;24.6;61
68628;BME280;55611;48.602;9.490;2022-08-21T10:08:45;96950;;;24.8;61
68628;BME280;55611;48.602;9.490;2022-08-21T10:11:16;96940;;;24.9;61
68628;BME280;55611;48.602;9.490;2022-08-21T10:13:49;96940;;;24.9;61
68628;BME280;55611;48.602;9.490;2022-08-21T10:16:36;96940;;;25;61
68628;BME280;55611;48.602;9.490;2022-08-21T10:18:52;96940;;;25.2;61
68628;BME280;55611;48.602;9.490;2022-08-21T10:21:21;96940;;;25.3;61
68628;BME280;55611;48.602;9.490;2022-08-21T10:24:04;96930;;;25.2;61
68628;BME280;55611;48.602;9.490;2022-08-21T10:26:25;96930;;;25.2;61
68628;BME280;55611;48.602;9.490;2022-08-21T10:28:53;96930;;;25.3;61
68628;BME280;55611;48.602;9.490;2022-08-21T10:31:54;96930;;;25.4;61
68628;BME280;55611;48.602;9.490;2022-08-21T10:34:05;96930;;;25.5;61
68628;BME280;55611;48.602;9.490;2022-08-21T10:36:25;96930;;;25.5;61
68628;BME280;55611;48.602;9.490;2022-08-21T10:38:55;96930;;;25.6;61
68628;BME280;55611;48.602;9.490;2022-08-21T10:41:27;96930;;;25.5;61
68628;BME280;55611;48.602;9.490;2022-08-21T10:43:57;96930;;;25.5;61
68628;BME280;55611;48.602;9.490;2022-08-21T10:48:54;96920;;;25.4;60.5
68628;BME280;55611;48.602;9.490;2022-08-21T10:51:27;96920;;;25.4;61
68628;BME280;55611;48.602;9.490;2022-08-21T10:53:59;96930;;;25.5;61
68628;BME280;55611;48.602;9.490;2022-08-21T10:56:26;96920;;;25.4;61
68628;BME280;55611;48.602;9.490;2022-08-21T10:58:59;96920;;;25.4;61
68628;BME280;55611;48.602;9.490;2022-08-21T11:01:28;96920;;;25.5;61
68628;BME280;55611;48.602;9.490;2022-08-21T11:04:08;96910;;;25.7;60.5
68628;BME280;55611;48.602;9.490;2022-08-21T11:06:27;96910;;;25.7;60.5
68628;BME280;55611;48.602;9.490;2022-08-21T11:08:58;96910;;;25.8;60.5
68628;BME280;55611;48.602;9.490;2022-08-21T11:11:30;96900;;;25.9;60.5
68628;BME280;55611;48.602;9.490;2022-08-21T11:14:33;96900;;;26;60.5
68628;BME280;55611;48.602;9.490;2022-08-21T11:16:36;96900;;;26;60.5
68628;BME280;55611;48.602;9.490;2022-08-21T11:19:02;96900;;;26;60.5
68628;BME280;55611;48.602;9.490;2022-08-21T11:21:38;96900;;;25.9;60.5
68628;BME280;55611;48.602;9.490;2022-08-21T11:24:03;96890;;;25.8;60.5
68628;BME280;55611;48.602;9.490;2022-08-21T11:26:34;96890;;;25.8;60.5
68628;BME280;55611;48.602;9.490;2022-08-21T11:29:04;96890;;;25.9;60.5
68628;BME280;55611;48.602;9.490;2022-08-21T11:31:45;96890;;;26;60.5
68628;BME280;55611;48.602;9.490;2022-08-21T11:34:37;96890;;;26.2;60.5
68628;BME280;55611;48.602;9.490;2022-08-21T11:36:37;96880;;;26.3;60
68628;BME280;55611;48.602;9.490;2022-08-21T11:39:07;96880;;;26.3;60
68628;BME280;55611;48.602;9.490;2022-08-21T11:41:37;96880;;;26.2;60
68628;BME280;55611;48.602;9.490;2022-08-21T11:46:41;96880;;;26.2;60
68628;BME280;55611;48.602;9.490;2022-08-21T11:49:41;96880;;;26.3;60
68628;BME280;55611;48.602;9.490;2022-08-21T11:51:45;96870;;;26.3;60
68628;BME280;55611;48.602;9.490;2022-08-21T11:54:15;96870;;;26.4;60
68628;BME280;55611;48.602;9.490;2022-08-21T11:56:38;96870;;;26.4;60
68628;BME280;55611;48.602;9.490;2022-08-21T11:59:11;96870;;;26.5;60
68628;BME280;55611;48.602;9.490;2022-08-21T12:01:40;96870;;;26.4;60
68628;BME280;55611;48.602;9.490;2022-08-21T12:04:16;96870;;;26.5;60
68628;BME280;55611;48.602;9.490;2022-08-21T12:06:40;96870;;;26.4;59.5
68628;BME280;55611;48.602;9.490;2022-08-21T12:11:45;96860;;;26.5;59.5
68628;BME280;55611;48.602;9.490;2022-08-21T12:14:13;96860;;;26.6;59.5
68628;BME280;55611;48.602;9.490;2022-08-21T12:16:42;96860;;;26.6;59.5
68628;BME280;55611;48.602;9.490;2022-08-21T12:21:59;96860;;;26.8;59.5
68628;BME280;55611;48.602;9.490;2022-08-21T12:24:18;96860;;;26.8;59.5
68628;BME280;55611;48.602;9.490;2022-08-21T12:26:51;96860;;;26.8;59.5
68628;BME280;55611;48.602;9.490;2022-08-21T12:29:16;96850;;;26.9;59.5
68628;BME280;55611;48.602;9.490;2022-08-21T12:31:53;96850;;;27;59.5
68628;BME280;55611;48.602;9.490;2022-08-21T12:34:15;96850;;;27;59.5
68628;BME280;55611;48.602;9.490;2022-08-21T12:36:47;96850;;;27;59
68628;BME280;55611;48.602;9.490;2022-08-21T12:39:17;96840;;;27.1;59
68628;BME280;55611;48.602;9.490;2022-08-21T12:41:52;96840;;;27.1;59
68628;BME280;55611;48.602;9.490;2022-08-21T12:44:20;96830;;;26.9;59
68628;BME280;55611;48.602;9.490;2022-08-21T12:46:54;96830;;;26.9;59
68628;BME280;55611;48.602;9.490;2022-08-21T12:49:19;96830;;;27;59
68628;BME280;55611;48.602;9.490;2022-08-21T12:51:51;96830;;;27;59
68628;BME280;55611;48.602;9.490;2022-08-21T12:54:50;96830;;;27.1;59
68628;BME280;55611;48.602;9.490;2022-08-21T12:56:57;96830;;;27.2;59
68628;BME280;55611;48.602;9.490;2022-08-21T12:59:20;96830;;;27.2;59
68628;BME280;55611;48.602;9.490;2022-08-21T13:01:51;96830;;;27.2;59
68628;BME280;55611;48.602;9.490;2022-08-21T13:04:33;96830;;;27.1;59
68628;BME280;55611;48.602;9.490;2022-08-21T13:06:52;96830;;;27.1;59
68628;BME280;55611;48.602;9.490;2022-08-21T13:09:24;96820;;;27.2;58.5
68628;BME280;55611;48.602;9.490;2022-08-21T13:11:52;96820;;;27.2;58.5
68628;BME280;55611;48.602;9.490;2022-08-21T13:14:26;96820;;;27.2;58.5
68628;BME280;55611;48.602;9.490;2022-08-21T13:16:54;96820;;;27.3;58.5
68628;BME280;55611;48.602;9.490;2022-08-21T13:19:24;96820;;;27.3;58.5
68628;BME280;55611;48.602;9.490;2022-08-21T13:21:55;96820;;;27.2;58.5
68628;BME280;55611;48.602;9.490;2022-08-21T13:24:26;96820;;;27.2;58.5
68628;BME280;55611;48.602;9.490;2022-08-21T13:26:56;96820;;;27.2;58.5
68628;BME280;55611;48.602;9.490;2022-08-21T13:29:28;96820;;;27.1;58.5
68628;BME280;55611;48.602;9.490;2022-08-21T13:31:58;96820;;;27.1;58.5
68628;BME280;55611;48.602;9.490;2022-08-21T13:34:29;96820;;;27.3;58.5
68628;BME280;55611;48.602;9.490;2022-08-21T13:36:58;96820;;;27.2;58.5
68628;BME280;55611;48.602;9.490;2022-08-21T13:39:28;96820;;;27.2;58.5
68628;BME280;55611;48.602;9.490;2022-08-21T13:41:59;96810;;;27.2;58.5
68628;BME280;55611;48.602;9.490;2022-08-21T13:44:34;96810;;;27.3;58.5
68628;BME280;55611;48.602;9.490;2022-08-21T13:47:00;96810;;;27.4;58.5
68628;BME280;55611;48.602;9.490;2022-08-21T13:49:31;96810;;;27.4;58.5
68628;BME280;55611;48.602;9.490;2022-08-21T13:52:01;96810;;;27.5;58
68628;BME280;55611;48.602;9.490;2022-08-21T13:54:36;96810;;;27.6;58
68628;BME280;55611;48.602;9.490;2022-08-21T13:57:02;96810;;;27.6;58
68628;BME280;55611;48.602;9.490;2022-08-21T13:59:33;96810;;;27.6;58
68628;BME280;55611;48.602;9.490;2022-08-21T14:02:11;96810;;;27.5;58
68628;BME280;55611;48.602;9.490;2022-08-21T14:04:35;96810;;;27.5;58
68628;BME280;55611;48.602;9.490;2022-08-21T14:07:13;96810;;;27.5;58
68628;BME280;55611;48.602;9.490;2022-08-21T14:09:39;96810;;;27.5;58
68628;BME280;55611;48.602;9.490;2022-08-21T14:12:38;96810;;;27.5;58
68628;BME280;55611;48.602;9.490;2022-08-21T14:14:35;96810;;;27.5;58
68628;BME280;55611;48.602;9.490;2022-08-21T14:17:07;96810;;;27.5;58
68628;BME280;55611;48.602;9.490;2022-08-21T14:19:38;96810;;;27.5;58
68628;BME280;55611;48.602;9.490;2022-08-21T14:23:10;96810;;;27.6;58
68628;BME280;55611;48.602;9.490;2022-08-21T14:24:39;96810;;;27.5;58
68628;BME280;55611;48.602;9.490;2022-08-21T14:27:08;96800;;;27.5;57.5
68628;BME280;55611;48.602;9.490;2022-08-21T14:29:39;96800;;;27.5;57.5
68628;BME280;55611;48.602;9.490;2022-08-21T14:32:11;96800;;;27.4;57.5
68628;BME280;55611;48.602;9.490;2022-08-21T14:34:39;96800;;;27.3;57.5
68628;BME280;55611;48.602;9.490;2022-08-21T14:37:10;96800;;;27.3;57.5
68628;BME280;55611;48.602;9.490;2022-08-21T14:39:40;96790;;;27.4;57.5
68628;BME280;55611;48.602;9.490;2022-08-21T14:42:11;96790;;;27.5;57.5
68628;BME280;55611;48.602;9.490;2022-08-21T14:44:41;96780;;;27.4;57.5